Time;durP1;ratioP1;P1;durP2;ratioP2;P2;SDS_P1;SDS_P2;PMS_P1;PMS_P2;Temp;Humidity;BMP_temperature;BMP_pressure;BME280_temperature;BME280_humidity;BME280_pressure;Samples;Min_cycle;Max_cycle;Signal;HPM_P1;HPM_P2
2021/11/23 00:00:09;;;;;;;12.77;5.70;;;3.20;91.30;;;;;;4993747;28;20030;-87
2021/11/23 00:02:36;;;;;;;9.70;5.10;;;3.20;91.30;;;;;;4993407;28;20026;-87
2021/11/23 00:05:01;;;;;;;10.93;5.70;;;3.20;91.40;;;;;;4994189;28;20088;-87
2021/11/23 00:07:27;;;;;;;14.30;4.77;;;3.30;91.50;;;;;;4977233;28;20491;-87
2021/11/23 00:09:53;;;;;;;13.87;5.20;;;3.20;91.60;;;;;;4994466;28;20039;-87
2021/11/23 00:12:18;;;;;;;10.43;5.23;;;3.40;91.70;;;;;;5009451;28;20174;-86
2021/11/23 00:14:44;;;;;;;9.40;4.77;;;3.30;91.60;;;;;;4978616;28;20053;-82
2021/11/23 00:17:10;;;;;;;11.07;5.30;;;3.20;91.60;;;;;;4976916;28;20039;-87
2021/11/23 00:19:35;;;;;;;8.97;4.47;;;3.20;91.80;;;;;;4993219;28;20022;-87
2021/11/23 00:22:01;;;;;;;10.87;4.47;;;3.20;91.60;;;;;;5007604;28;20026;-87
2021/11/23 00:24:27;;;;;;;10.33;4.63;;;3.20;91.70;;;;;;5013676;28;20031;-86
2021/11/23 00:26:53;;;;;;;9.50;5.07;;;3.20;91.70;;;;;;5028584;28;20490;-88
2021/11/23 00:29:18;;;;;;;9.43;4.17;;;3.20;91.80;;;;;;5029338;28;20034;-86
2021/11/23 00:31:44;;;;;;;9.90;4.53;;;3.20;91.80;;;;;;5005246;28;20088;-88
2021/11/23 00:34:10;;;;;;;10.73;5.00;;;3.20;91.90;;;;;;4993388;28;20026;-87
2021/11/23 00:36:35;;;;;;;8.03;4.77;;;3.20;91.90;;;;;;4993466;28;20510;-87
2021/11/23 00:39:01;;;;;;;13.33;4.80;;;3.20;92.10;;;;;;4996950;28;20475;-86
2021/11/23 00:41:27;;;;;;;12.87;5.37;;;3.20;92.20;;;;;;4996475;28;20050;-86
2021/11/23 00:43:52;;;;;;;10.27;5.23;;;3.20;92.20;;;;;;4997112;28;20054;-87
2021/11/23 00:46:18;;;;;;;10.17;5.40;;;3.20;92.30;;;;;;4997661;28;20038;-87
2021/11/23 00:48:44;;;;;;;13.33;6.00;;;3.30;92.50;;;;;;4997628;28;20502;-87
2021/11/23 00:51:10;;;;;;;11.77;5.70;;;3.30;92.50;;;;;;4996906;28;20022;-87
2021/11/23 00:53:36;;;;;;;12.57;5.40;;;3.30;92.70;;;;;;4996858;28;20037;-87
2021/11/23 00:56:04;;;;;;;11.33;5.30;;;3.40;92.70;;;;;;4980358;28;20056;-86
2021/11/23 00:58:30;;;;;;;16.07;5.33;;;3.40;92.80;;;;;;4997664;28;20034;-87
2021/11/23 01:00:56;;;;;;;11.17;6.03;;;3.40;92.80;;;;;;4996820;28;20030;-87
2021/11/23 01:03:22;;;;;;;14.43;5.67;;;3.50;92.80;;;;;;4997204;28;20041;-90
2021/11/23 01:05:49;;;;;;;14.37;6.07;;;3.50;92.80;;;;;;4996435;28;20040;-89
2021/11/23 01:08:18;;;;;;;17.80;6.33;;;3.50;92.80;;;;;;4996568;28;20057;-89
2021/11/23 01:10:45;;;;;;;11.77;5.77;;;3.50;92.90;;;;;;4980887;28;20030;-88
2021/11/23 01:13:11;;;;;;;12.50;5.80;;;3.60;93.30;;;;;;4996923;28;20023;-89
2021/11/23 01:15:37;;;;;;;11.13;5.50;;;3.60;93.00;;;;;;4997008;28;20498;-89
2021/11/23 01:18:04;;;;;;;12.23;5.17;;;3.70;93.20;;;;;;4999240;28;20545;-85
2021/11/23 01:20:31;;;;;;;13.23;6.33;;;3.80;93.30;;;;;;5015985;28;20486;-88
2021/11/23 01:22:57;;;;;;;10.83;6.17;;;3.80;93.20;;;;;;5016035;28;20040;-85
2021/11/23 01:25:24;;;;;;;12.23;6.60;;;3.80;93.10;;;;;;5014748;28;20502;-86
2021/11/23 01:27:50;;;;;;;15.77;5.93;;;3.90;93.20;;;;;;4995710;28;20046;-85
2021/11/23 01:30:18;;;;;;;13.80;6.73;;;4.10;93.20;;;;;;4979289;28;20038;-85
2021/11/23 01:32:44;;;;;;;11.43;6.07;;;4.00;93.20;;;;;;4995974;28;20061;-86
2021/11/23 01:35:14;;;;;;;12.20;6.10;;;4.00;93.20;;;;;;4995401;28;20026;-86
2021/11/23 01:37:44;;;;;;;12.93;6.73;;;4.10;93.30;;;;;;4997159;28;20093;-86
2021/11/23 01:40:14;;;;;;;12.97;6.53;;;4.00;93.30;;;;;;4995451;28;20387;-84
2021/11/23 01:42:41;;;;;;;14.10;6.30;;;4.10;93.30;;;;;;4997102;28;20026;-85
2021/11/23 01:45:08;;;;;;;15.87;7.27;;;4.10;93.30;;;;;;4996816;28;20037;-85
2021/11/23 01:47:33;;;;;;;12.63;6.40;;;4.10;93.30;;;;;;4995471;28;20161;-86
2021/11/23 01:49:59;;;;;;;12.90;7.07;;;4.10;93.30;;;;;;4979722;28;20483;-85
2021/11/23 01:52:25;;;;;;;17.63;6.47;;;4.10;93.30;;;;;;4979540;28;20026;-86
2021/11/23 01:54:51;;;;;;;18.43;6.50;;;4.10;93.30;;;;;;4996046;28;20058;-85
2021/11/23 01:57:17;;;;;;;17.17;6.83;;;4.20;93.30;;;;;;4979494;28;20068;-85
2021/11/23 01:59:44;;;;;;;14.07;6.80;;;4.20;93.30;;;;;;4997042;28;20036;-87
2021/11/23 02:02:09;;;;;;;15.63;6.60;;;4.20;93.30;;;;;;4998773;28;20050;-87
2021/11/23 02:04:35;;;;;;;15.30;6.70;;;4.10;93.30;;;;;;4996473;28;20026;-85
2021/11/23 02:07:01;;;;;;;13.83;7.00;;;4.20;93.40;;;;;;4995023;28;20054;-86
2021/11/23 02:09:27;;;;;;;17.43;7.13;;;4.30;93.40;;;;;;4997018;28;20528;-86
2021/11/23 02:11:54;;;;;;;11.50;5.93;;;4.20;93.40;;;;;;4995253;28;20026;-86
2021/11/23 02:14:20;;;;;;;13.97;6.80;;;4.20;93.50;;;;;;4979220;28;20022;-87
2021/11/23 02:16:46;;;;;;;14.67;6.90;;;4.20;93.40;;;;;;4980239;28;20128;-86
2021/11/23 02:19:12;;;;;;;15.10;7.60;;;4.30;93.50;;;;;;4994470;28;20054;-82
2021/11/23 02:21:37;;;;;;;13.67;7.47;;;4.30;93.60;;;;;;4995001;28;20054;-87
2021/11/23 02:24:03;;;;;;;14.87;7.40;;;4.30;93.70;;;;;;4994255;28;20039;-86
2021/11/23 02:26:29;;;;;;;13.00;6.70;;;4.40;93.60;;;;;;4978190;28;20121;-84
2021/11/23 02:28:56;;;;;;;17.60;7.77;;;4.40;93.60;;;;;;4994624;28;20032;-83
2021/11/23 02:31:22;;;;;;;17.13;7.37;;;4.40;93.60;;;;;;4996213;28;20447;-85
2021/11/23 02:33:49;;;;;;;19.13;7.70;;;4.40;93.60;;;;;;4995101;28;20129;-85
2021/11/23 02:36:15;;;;;;;14.33;6.73;;;4.50;93.70;;;;;;4994716;28;20482;-88
2021/11/23 02:38:41;;;;;;;13.97;7.13;;;4.50;93.80;;;;;;4996041;28;20029;-89
2021/11/23 02:41:11;;;;;;;14.50;7.60;;;4.60;93.70;;;;;;4994780;28;20049;-89
2021/11/23 02:43:38;;;;;;;15.60;7.50;;;4.60;93.70;;;;;;4994687;28;20501;-84
2021/11/23 02:46:04;;;;;;;15.47;6.73;;;4.70;93.70;;;;;;5009857;28;20038;-84
2021/11/23 02:48:30;;;;;;;15.40;7.50;;;4.70;93.60;;;;;;4993781;28;20109;-84
2021/11/23 02:51:03;;;;;;;14.30;7.03;;;4.60;93.60;;;;;;4977540;28;20038;-83
2021/11/23 02:53:29;;;;;;;16.07;6.93;;;4.70;93.70;;;;;;4996330;28;20025;-85
2021/11/23 02:55:56;;;;;;;12.87;6.87;;;4.70;93.70;;;;;;4977763;28;20062;-85
2021/11/23 02:58:22;;;;;;;13.87;6.60;;;4.70;94.00;;;;;;4994563;28;20026;-85
2021/11/23 03:00:48;;;;;;;15.07;6.77;;;4.70;93.80;;;;;;4992417;28;20084;-85
2021/11/23 03:03:14;;;;;;;13.83;6.37;;;4.70;93.80;;;;;;4993759;28;20109;-85
2021/11/23 03:05:40;;;;;;;12.03;7.17;;;4.80;93.80;;;;;;4977038;28;20084;-84
2021/11/23 03:08:06;;;;;;;13.17;6.53;;;4.80;93.80;;;;;;4993270;28;20046;-84
2021/11/23 03:10:33;;;;;;;12.00;6.13;;;4.80;93.90;;;;;;4994787;28;20026;-85
2021/11/23 03:13:00;;;;;;;16.80;7.10;;;4.90;93.90;;;;;;4994979;28;20041;-84
2021/11/23 03:15:26;;;;;;;14.87;5.80;;;4.90;93.90;;;;;;4993659;28;20168;-85
2021/11/23 03:17:53;;;;;;;13.80;7.03;;;5.00;94.00;;;;;;4977251;28;20035;-85
2021/11/23 03:20:22;;;;;;;13.27;6.37;;;5.00;94.00;;;;;;4994277;28;20088;-85
2021/11/23 03:22:48;;;;;;;10.87;6.30;;;5.00;93.90;;;;;;4993433;28;20539;-83
2021/11/23 03:25:15;;;;;;;17.10;6.60;;;5.00;93.90;;;;;;4994739;28;20026;-85
2021/11/23 03:27:41;;;;;;;10.27;5.53;;;5.00;93.90;;;;;;4995796;28;20038;-83
2021/11/23 03:30:10;;;;;;;17.17;6.63;;;5.10;94.00;;;;;;4993228;28;20038;-85
2021/11/23 03:32:36;;;;;;;14.17;5.53;;;5.10;94.00;;;;;;4993448;28;20477;-86
2021/11/23 03:35:03;;;;;;;11.80;5.40;;;5.10;94.00;;;;;;4992917;28;20066;-85
2021/11/23 03:37:29;;;;;;;13.03;5.63;;;5.20;94.00;;;;;;4994849;28;20023;-86
2021/11/23 03:39:55;;;;;;;12.40;6.53;;;5.20;94.00;;;;;;5009675;28;20022;-85
2021/11/23 03:42:22;;;;;;;10.83;6.23;;;5.20;94.00;;;;;;4992873;28;20145;-85
2021/11/23 03:44:47;;;;;;;14.70;6.83;;;5.30;94.10;;;;;;4993743;28;20085;-84
2021/11/23 03:47:15;;;;;;;14.80;5.50;;;5.30;94.10;;;;;;4992859;28;20042;-84
2021/11/23 03:49:44;;;;;;;11.00;5.60;;;5.30;94.00;;;;;;4992962;28;20126;-85
2021/11/23 03:52:10;;;;;;;13.63;5.63;;;5.30;94.00;;;;;;4977020;28;20022;-84
2021/11/23 03:54:36;;;;;;;12.67;5.47;;;5.40;94.00;;;;;;4976712;28;20093;-85
2021/11/23 03:57:02;;;;;;;11.43;4.83;;;5.30;94.00;;;;;;4992440;28;20531;-85
2021/11/23 03:59:28;;;;;;;10.20;5.00;;;5.30;94.00;;;;;;4994254;28;20110;-85
2021/11/23 04:01:53;;;;;;;11.97;5.30;;;5.30;94.10;;;;;;4995160;28;20048;-85
2021/11/23 04:04:19;;;;;;;13.97;5.63;;;5.40;94.20;;;;;;4994175;28;20033;-87
2021/11/23 04:06:45;;;;;;;15.60;5.40;;;5.40;94.20;;;;;;4992974;28;20064;-88
2021/11/23 04:09:11;;;;;;;13.87;5.43;;;5.40;94.20;;;;;;4977450;28;20511;-86
2021/11/23 04:11:36;;;;;;;11.20;4.60;;;5.40;94.20;;;;;;5009831;28;20030;-87
2021/11/23 04:14:03;;;;;;;10.90;4.27;;;5.50;94.30;;;;;;4997720;28;20034;-87
2021/11/23 04:16:29;;;;;;;9.30;4.60;;;5.40;94.30;;;;;;4993634;28;20038;-87
2021/11/23 04:18:55;;;;;;;10.87;4.80;;;5.50;94.30;;;;;;5004694;28;20030;-86
2021/11/23 04:21:21;;;;;;;13.93;4.50;;;5.50;94.40;;;;;;5010651;28;20470;-88
2021/11/23 04:23:47;;;;;;;11.30;5.33;;;5.50;94.40;;;;;;5014326;28;20037;-89
2021/11/23 04:26:12;;;;;;;12.97;5.30;;;5.60;94.50;;;;;;5012792;28;20033;-85
2021/11/23 04:28:38;;;;;;;12.27;4.57;;;5.60;94.50;;;;;;5004099;28;20034;-85
2021/11/23 04:31:04;;;;;;;14.07;5.43;;;5.60;94.50;;;;;;4992512;28;20018;-85
2021/11/23 04:33:30;;;;;;;12.30;4.90;;;5.60;94.50;;;;;;4992043;28;20026;-85
2021/11/23 04:35:56;;;;;;;8.90;4.60;;;5.60;94.50;;;;;;4993035;28;20490;-85
2021/11/23 04:38:23;;;;;;;8.73;4.70;;;5.70;94.60;;;;;;4992452;28;20038;-85
2021/11/23 04:40:49;;;;;;;10.60;3.70;;;5.70;94.50;;;;;;4993745;28;20065;-87
2021/11/23 04:43:14;;;;;;;8.97;4.07;;;5.70;94.50;;;;;;4992702;28;20062;-86
2021/11/23 04:45:40;;;;;;;13.20;4.50;;;5.80;94.60;;;;;;4993451;28;20035;-86
2021/11/23 04:48:07;;;;;;;12.73;4.37;;;5.80;94.60;;;;;;4992618;28;20121;-85
2021/11/23 04:50:33;;;;;;;9.20;4.37;;;5.80;94.60;;;;;;4976693;28;20471;-86
2021/11/23 04:53:01;;;;;;;9.50;3.23;;;5.80;94.70;;;;;;4992730;28;20042;-86
2021/11/23 04:55:26;;;;;;;10.00;3.60;;;5.80;94.70;;;;;;4976597;28;20383;-85
2021/11/23 04:57:52;;;;;;;10.67;4.03;;;5.90;94.80;;;;;;4992629;28;20052;-84
2021/11/23 05:00:19;;;;;;;11.77;4.20;;;5.90;94.70;;;;;;4993654;28;20116;-84
2021/11/23 05:02:45;;;;;;;10.33;3.53;;;5.90;94.70;;;;;;4993150;28;20031;-83
2021/11/23 05:05:12;;;;;;;8.73;3.37;;;6.10;94.80;;;;;;4992852;28;20053;-84
2021/11/23 05:07:39;;;;;;;10.80;4.00;;;6.00;94.70;;;;;;4992032;28;20038;-84
2021/11/23 05:10:06;;;;;;;7.50;3.27;;;6.00;94.70;;;;;;4992050;28;20459;-85
2021/11/23 05:12:32;;;;;;;9.87;3.40;;;6.00;94.70;;;;;;4992267;28;20022;-85
2021/11/23 05:14:58;;;;;;;12.70;4.07;;;6.00;94.80;;;;;;4994367;28;20094;-87
2021/11/23 05:17:24;;;;;;;11.43;4.60;;;6.00;94.70;;;;;;5002505;28;20031;-86
2021/11/23 05:19:49;;;;;;;10.77;4.20;;;6.00;94.70;;;;;;4993404;28;20034;-85
2021/11/23 05:22:16;;;;;;;14.77;5.00;;;6.10;94.80;;;;;;5006534;28;20030;-87
2021/11/23 05:24:41;;;;;;;11.07;3.90;;;6.10;94.80;;;;;;4996006;28;20035;-86
2021/11/23 05:27:07;;;;;;;11.77;4.23;;;6.10;94.70;;;;;;5006813;28;20112;-86
2021/11/23 05:29:33;;;;;;;8.90;3.40;;;6.10;94.80;;;;;;4994787;28;20505;-85
2021/11/23 05:31:59;;;;;;;12.00;4.00;;;6.10;94.80;;;;;;5010623;28;20390;-83
2021/11/23 05:34:24;;;;;;;13.20;3.93;;;6.10;94.80;;;;;;4995588;28;20031;-84
2021/11/23 05:36:50;;;;;;;10.37;3.10;;;6.10;94.80;;;;;;5011638;28;20031;-85
2021/11/23 05:39:16;;;;;;;8.87;3.47;;;6.20;94.80;;;;;;5010415;28;20034;-85
2021/11/23 05:41:42;;;;;;;13.23;4.10;;;6.30;95.10;;;;;;5016275;28;20049;-86
2021/11/23 05:44:09;;;;;;;10.27;3.90;;;6.10;94.80;;;;;;5014940;28;20046;-84
2021/11/23 05:46:36;;;;;;;12.40;4.40;;;6.20;94.90;;;;;;4998799;28;20445;-85
2021/11/23 05:49:02;;;;;;;8.87;4.23;;;6.20;94.90;;;;;;4998672;28;20034;-87
2021/11/23 05:51:28;;;;;;;5.90;3.13;;;6.20;94.90;;;;;;4998703;28;20033;-86
2021/11/23 05:53:53;;;;;;;7.90;3.70;;;6.20;95.00;;;;;;5015522;28;20081;-85
2021/11/23 05:56:19;;;;;;;10.40;3.47;;;6.20;95.00;;;;;;4997464;28;20470;-86
2021/11/23 05:58:45;;;;;;;12.63;3.50;;;6.20;95.00;;;;;;4999170;28;20117;-88
2021/11/23 06:01:11;;;;;;;8.80;3.97;;;6.20;95.00;;;;;;4999307;28;20026;-86
2021/11/23 06:03:36;;;;;;;12.87;4.73;;;6.20;95.00;;;;;;5015557;28;20057;-86
2021/11/23 06:06:03;;;;;;;13.20;4.87;;;6.30;95.00;;;;;;5015755;28;20030;-87
2021/11/23 06:08:29;;;;;;;10.10;3.90;;;6.30;95.00;;;;;;5014743;28;20026;-85
2021/11/23 06:10:55;;;;;;;10.57;4.43;;;6.30;95.00;;;;;;5015795;28;20026;-87
2021/11/23 06:13:21;;;;;;;12.83;3.73;;;6.30;95.00;;;;;;5013774;28;20394;-89
2021/11/23 06:15:47;;;;;;;10.13;3.30;;;6.40;95.10;;;;;;5015514;28;20112;-88
2021/11/23 06:18:14;;;;;;;9.27;4.20;;;6.30;95.10;;;;;;5015244;28;20375;-85
2021/11/23 06:20:48;;;;;;;10.83;4.13;;;6.30;95.10;;;;;;5015883;28;20030;-86
2021/11/23 06:23:17;;;;;;;14.05;4.07;;;6.30;95.10;;;;;;5014664;28;20030;-84
2021/11/23 06:25:46;;;;;;;13.07;4.63;;;6.40;95.20;;;;;;5015211;28;20033;-88
2021/11/23 06:28:13;;;;;;;8.30;3.90;;;6.30;95.30;;;;;;5012069;28;20127;-84
2021/11/23 06:30:40;;;;;;;12.60;4.27;;;6.30;95.30;;;;;;5008976;28;20397;-88
2021/11/23 06:33:06;;;;;;;9.20;4.20;;;6.30;95.30;;;;;;5006910;28;20145;-85
2021/11/23 06:35:32;;;;;;;8.67;4.30;;;6.40;95.30;;;;;;5008102;28;20034;-88
2021/11/23 06:37:58;;;;;;;11.30;3.87;;;6.30;95.40;;;;;;5006598;28;20030;-88
2021/11/23 06:40:23;;;;;;;12.70;4.93;;;6.20;95.50;;;;;;5004980;28;20030;-85
2021/11/23 06:42:49;;;;;;;13.37;5.03;;;6.30;95.50;;;;;;5007452;28;20056;-84
2021/11/23 06:45:14;;;;;;;11.50;4.27;;;6.20;95.70;;;;;;4989496;28;20113;-84
2021/11/23 06:47:41;;;;;;;11.60;4.30;;;6.20;95.80;;;;;;5010560;28;20049;-84
2021/11/23 06:50:08;;;;;;;11.20;4.37;;;6.20;95.80;;;;;;5012169;28;20050;-85
2021/11/23 06:52:35;;;;;;;12.97;4.33;;;6.20;95.60;;;;;;5004938;28;20034;-88
2021/11/23 06:55:00;;;;;;;13.13;4.37;;;6.30;95.70;;;;;;5011723;28;20061;-88
2021/11/23 06:57:26;;;;;;;11.13;4.13;;;6.20;95.80;;;;;;5015765;28;20812;-89
2021/11/23 06:59:52;;;;;;;12.57;4.57;;;6.20;95.90;;;;;;5000220;28;20054;-86
2021/11/23 07:02:17;;;;;;;10.67;4.30;;;6.30;95.90;;;;;;5019994;28;20030;-90
2021/11/23 07:04:43;;;;;;;12.13;3.90;;;6.20;95.80;;;;;;5029282;28;20087;-89
2021/11/23 07:07:09;;;;;;;6.93;4.17;;;6.20;95.80;;;;;;5019369;28;20044;-85
2021/11/23 07:09:36;;;;;;;10.40;4.23;;;6.20;95.90;;;;;;5016235;28;20030;-91
2021/11/23 07:12:02;;;;;;;10.80;5.13;;;6.20;96.00;;;;;;5031807;28;20037;-88
2021/11/23 07:14:27;;;;;;;13.30;5.07;;;6.20;95.90;;;;;;5032036;28;20025;-90
2021/11/23 07:16:53;;;;;;;8.23;3.87;;;6.10;95.90;;;;;;5022677;28;20022;-89
2021/11/23 07:19:19;;;;;;;9.53;3.93;;;6.10;95.90;;;;;;5006492;28;20033;-90
2021/11/23 07:21:45;;;;;;;7.03;3.93;;;6.10;96.00;;;;;;5016621;28;20050;-89
2021/11/23 07:24:11;;;;;;;11.27;4.80;;;6.00;95.90;;;;;;5016675;28;20050;-91
2021/11/23 07:26:38;;;;;;;8.60;4.53;;;6.00;96.00;;;;;;5017019;28;20109;-89
2021/11/23 07:29:04;;;;;;;11.27;4.77;;;6.00;96.10;;;;;;4991074;28;20038;-89
2021/11/23 07:31:30;;;;;;;12.00;4.63;;;6.10;96.10;;;;;;5018166;28;20038;-88
2021/11/23 07:33:56;;;;;;;14.23;4.90;;;6.00;96.10;;;;;;5013728;28;20052;-89
2021/11/23 07:36:24;;;;;;;12.73;4.90;;;6.00;96.40;;;;;;5006198;28;20495;-86
2021/11/23 07:38:52;;;;;;;15.73;5.30;;;6.00;96.30;;;;;;5011627;28;20454;-85
2021/11/23 07:41:17;;;;;;;11.13;5.17;;;6.10;96.40;;;;;;5011405;28;21503;-86
2021/11/23 07:43:43;;;;;;;10.80;4.93;;;6.10;96.50;;;;;;5012671;28;20094;-85
2021/11/23 07:46:09;;;;;;;11.77;5.30;;;6.30;96.50;;;;;;5007042;28;20383;-85
2021/11/23 07:48:36;;;;;;;12.63;4.83;;;6.20;96.60;;;;;;4991874;28;20478;-84
2021/11/23 07:51:02;;;;;;;10.70;4.30;;;6.30;96.60;;;;;;4998794;28;20078;-81
2021/11/23 07:53:28;;;;;;;11.70;4.63;;;6.30;96.60;;;;;;5000121;28;20634;-84
2021/11/23 07:55:53;;;;;;;10.30;4.10;;;6.40;96.70;;;;;;4993881;28;20035;-84
2021/11/23 07:58:19;;;;;;;11.30;4.33;;;6.40;96.70;;;;;;5011627;28;20080;-84
2021/11/23 08:00:45;;;;;;;14.63;5.07;;;6.50;96.70;;;;;;4995351;28;20073;-83
2021/11/23 08:03:11;;;;;;;10.53;5.13;;;6.50;96.70;;;;;;5012451;28;20022;-85
2021/11/23 08:05:38;;;;;;;11.47;4.77;;;6.50;96.70;;;;;;5013243;28;20084;-83
2021/11/23 08:08:05;;;;;;;12.33;4.90;;;6.60;96.80;;;;;;4995376;28;20397;-84
2021/11/23 08:10:32;;;;;;;9.73;4.30;;;6.60;96.90;;;;;;5006322;28;20043;-85
2021/11/23 08:12:57;;;;;;;8.93;4.30;;;6.70;96.90;;;;;;5007611;28;20509;-84
2021/11/23 08:15:23;;;;;;;13.37;5.43;;;6.70;97.00;;;;;;4986598;28;20683;-83
2021/11/23 08:17:49;;;;;;;8.97;5.43;;;6.80;97.00;;;;;;4975432;28;20066;-83
2021/11/23 08:20:15;;;;;;;10.53;4.73;;;6.80;97.00;;;;;;5009509;28;20093;-87
2021/11/23 08:22:42;;;;;;;10.67;4.77;;;6.90;97.00;;;;;;5000144;28;20426;-84
2021/11/23 08:25:09;;;;;;;8.07;4.27;;;6.90;97.00;;;;;;4993228;28;20027;-85
2021/11/23 08:27:36;;;;;;;10.90;5.00;;;6.90;97.00;;;;;;4976276;28;20035;-83
2021/11/23 08:30:06;;;;;;;9.77;4.27;;;6.90;97.00;;;;;;4995071;28;20041;-86
2021/11/23 08:32:33;;;;;;;12.63;4.97;;;7.00;97.00;;;;;;4995847;28;20038;-88
2021/11/23 08:34:58;;;;;;;10.63;4.73;;;7.00;97.00;;;;;;5012476;28;20030;-87
2021/11/23 08:37:26;;;;;;;7.93;4.57;;;7.00;97.00;;;;;;5011714;28;20030;-86
2021/11/23 08:39:54;;;;;;;10.77;5.33;;;7.10;97.00;;;;;;5011150;28;20033;-85
2021/11/23 08:42:20;;;;;;;7.63;4.70;;;7.10;97.10;;;;;;5003681;28;20048;-84
2021/11/23 08:44:47;;;;;;;14.50;6.00;;;7.10;97.00;;;;;;4995291;28;20453;-86
2021/11/23 08:47:14;;;;;;;9.07;4.73;;;7.10;97.10;;;;;;5009913;28;20053;-85
2021/11/23 08:49:40;;;;;;;9.53;4.80;;;7.20;97.10;;;;;;4994963;28;20402;-84
2021/11/23 08:52:06;;;;;;;12.87;5.47;;;7.20;97.10;;;;;;5011691;28;20030;-85
2021/11/23 08:54:32;;;;;;;11.43;5.10;;;7.30;97.00;;;;;;5010562;28;20038;-85
2021/11/23 08:57:08;;;;;;;11.80;5.13;;;7.40;97.10;;;;;;4994859;28;20459;-84
2021/11/23 08:59:39;;;;;;;13.07;5.20;;;7.30;97.00;;;;;;5015826;28;20054;-88
2021/11/23 09:02:05;;;;;;;13.50;5.13;;;7.40;97.00;;;;;;4999529;28;20030;-84
2021/11/23 09:04:33;;;;;;;12.33;5.37;;;7.40;97.00;;;;;;4999295;28;20062;-85
2021/11/23 09:07:02;;;;;;;17.43;6.00;;;7.40;97.10;;;;;;4995921;28;20038;-84
2021/11/23 09:09:29;;;;;;;12.47;5.90;;;7.50;97.10;;;;;;4996799;28;20031;-84
2021/11/23 09:11:57;;;;;;;11.17;5.60;;;7.50;97.10;;;;;;4996914;28;20110;-85
2021/11/23 09:14:24;;;;;;;14.60;5.73;;;7.60;97.10;;;;;;4980507;28;20027;-86
2021/11/23 09:16:50;;;;;;;17.50;5.87;;;7.60;97.10;;;;;;4996271;28;20030;-85
2021/11/23 09:19:16;;;;;;;15.87;6.73;;;7.60;97.10;;;;;;4995755;28;20084;-85
2021/11/23 09:21:42;;;;;;;10.70;5.37;;;7.70;97.20;;;;;;4996502;28;20046;-85
2021/11/23 09:24:07;;;;;;;14.17;6.63;;;7.90;97.30;;;;;;5011898;28;20523;-85
2021/11/23 09:26:33;;;;;;;12.83;5.63;;;8.00;97.30;;;;;;4995378;28;20049;-85
2021/11/23 09:28:59;;;;;;;10.77;5.33;;;8.10;97.40;;;;;;4996507;28;20464;-82
2021/11/23 09:31:25;;;;;;;13.07;6.43;;;8.20;97.40;;;;;;5001945;28;20033;-85
2021/11/23 09:33:51;;;;;;;17.83;7.43;;;8.30;97.30;;;;;;5015005;28;20037;-86
2021/11/23 09:36:16;;;;;;;17.10;6.40;;;8.30;97.30;;;;;;5015176;28;20044;-90
2021/11/23 09:38:42;;;;;;;15.40;6.83;;;8.30;97.20;;;;;;4996786;28;20034;-94
2021/11/23 09:41:09;;;;;;;23.97;6.93;;;8.50;97.30;;;;;;4998327;28;20072;-90
2021/11/23 09:43:37;;;;;;;13.87;7.37;;;8.50;97.30;;;;;;5015003;28;20056;-87
2021/11/23 09:46:03;;;;;;;15.60;7.10;;;8.60;97.20;;;;;;5015624;28;20040;-90
2021/11/23 09:48:29;;;;;;;22.23;7.93;;;8.70;97.20;;;;;;5010961;28;20014;-90
2021/11/23 09:50:55;;;;;;;18.63;8.30;;;8.70;97.10;;;;;;5005505;28;20285;-89
2021/11/23 09:53:21;;;;;;;19.13;8.90;;;8.80;97.10;;;;;;4995765;28;20033;-89
2021/11/23 09:55:51;;;;;;;13.63;7.43;;;8.80;97.10;;;;;;4997229;28;20470;-89
2021/11/23 09:58:17;;;;;;;17.07;7.53;;;8.80;97.10;;;;;;4996213;28;20026;-89
2021/11/23 10:00:48;;;;;;;22.17;7.30;;;8.80;97.10;;;;;;4996239;28;20114;-89
2021/11/23 10:03:22;;;;;;;21.90;7.77;;;8.80;97.10;;;;;;4996589;28;20034;-89
2021/11/23 10:05:51;;;;;;;17.43;8.33;;;9.00;97.10;;;;;;4995562;28;20617;-89
2021/11/23 10:08:18;;;;;;;17.40;7.63;;;9.00;97.10;;;;;;4979568;28;20039;-90
2021/11/23 10:10:51;;;;;;;17.70;8.20;;;9.10;97.10;;;;;;4995730;28;20023;-89
2021/11/23 10:13:19;;;;;;;15.33;7.20;;;9.10;97.10;;;;;;4996904;28;20022;-89
2021/11/23 10:15:47;;;;;;;24.83;8.13;;;9.10;97.10;;;;;;5011221;28;20026;-88
2021/11/23 10:18:17;;;;;;;15.03;8.20;;;9.30;97.10;;;;;;4996498;28;20023;-90
2021/11/23 10:20:46;;;;;;;18.30;8.03;;;9.30;97.00;;;;;;4996569;28;20029;-89
2021/11/23 10:23:20;;;;;;;16.73;7.73;;;9.30;97.00;;;;;;4995286;28;20492;-89
2021/11/23 10:25:48;;;;;;;18.70;8.97;;;9.30;96.90;;;;;;5002541;28;20065;-90
2021/11/23 10:28:18;;;;;;;22.03;8.07;;;9.40;97.00;;;;;;5015994;28;20037;-89
2021/11/23 10:30:46;;;;;;;20.47;8.90;;;9.40;96.90;;;;;;5012869;28;20458;-89
2021/11/23 10:33:14;;;;;;;14.97;8.73;;;9.40;96.90;;;;;;4995321;28;20045;-90
2021/11/23 10:35:43;;;;;;;16.83;9.13;;;9.50;97.00;;;;;;4978913;28;20073;-89
2021/11/23 10:38:09;;;;;;;17.10;9.93;;;9.50;97.00;;;;;;4994718;28;20026;-90
2021/11/23 10:40:40;;;;;;;19.30;11.13;;;9.60;96.90;;;;;;4998772;28;20033;-88
2021/11/23 10:43:15;;;;;;;18.63;11.20;;;9.60;96.90;;;;;;5001335;28;20050;-88
2021/11/23 10:45:51;;;;;;;20.97;10.27;;;9.60;96.80;;;;;;5000769;28;20022;-90
2021/11/23 10:48:19;;;;;;;15.83;8.77;;;9.70;96.80;;;;;;5017084;28;20574;-88
2021/11/23 10:50:57;;;;;;;15.87;8.50;;;9.70;96.80;;;;;;5002185;28;20034;-83
2021/11/23 10:53:23;;;;;;;15.77;8.70;;;9.70;96.80;;;;;;4994188;28;20026;-83
2021/11/23 10:55:49;;;;;;;17.17;7.53;;;9.70;96.80;;;;;;4994607;28;20026;-83
2021/11/23 10:58:15;;;;;;;15.23;7.63;;;9.70;96.70;;;;;;4993366;28;20080;-83
2021/11/23 11:00:48;;;;;;;19.73;7.77;;;9.70;96.70;;;;;;4993165;28;20467;-83
2021/11/23 11:03:16;;;;;;;17.07;8.70;;;9.80;96.80;;;;;;5002152;28;20172;-89
2021/11/23 11:05:43;;;;;;;16.30;6.50;;;9.80;96.90;;;;;;5015980;28;20022;-88
2021/11/23 11:08:10;;;;;;;14.97;7.23;;;9.90;96.90;;;;;;5024570;28;20494;-89
2021/11/23 11:10:37;;;;;;;14.47;7.00;;;10.00;96.90;;;;;;5021258;28;20037;-83
2021/11/23 11:13:06;;;;;;;18.00;7.53;;;10.00;97.00;;;;;;5011851;28;20038;-83
2021/11/23 11:15:33;;;;;;;16.13;6.97;;;10.20;97.10;;;;;;5011131;28;20104;-83
2021/11/23 11:18:01;;;;;;;12.77;7.30;;;10.30;97.20;;;;;;5008903;28;20068;-83
2021/11/23 11:20:41;;;;;;;13.52;7.45;;;10.70;97.60;;;;;;5011541;28;20113;-84
2021/11/23 11:23:10;;;;;;;11.52;6.30;;;11.10;97.90;;;;;;4996253;28;20053;-83
2021/11/23 11:25:56;;;;;;;11.98;5.25;;;11.60;98.70;;;;;;4994495;28;20462;-84
2021/11/23 11:28:53;;;;;;;13.75;4.85;;;12.40;99.30;;;;;;5008653;28;20409;-84
2021/11/23 11:31:41;;;;;;;9.45;4.25;;;13.10;98.70;;;;;;4993611;28;20054;-83
2021/11/23 11:34:24;;;;;;;7.00;2.65;;;13.60;98.20;;;;;;4993955;28;20022;-83
2021/11/23 11:37:05;;;;;;;7.05;4.03;;;14.20;97.60;;;;;;5007727;28;20540;-83
2021/11/23 11:39:40;;;;;;;8.52;3.08;;;14.50;96.70;;;;;;4999874;28;20429;-84
2021/11/23 11:42:36;;;;;;;6.15;3.03;;;14.60;95.80;;;;;;5011704;28;20054;-83
2021/11/23 11:45:11;;;;;;;7.05;3.13;;;14.60;94.70;;;;;;4999206;28;20081;-83
2021/11/23 11:47:37;;;;;;;8.38;3.13;;;14.60;94.10;;;;;;5002567;28;20529;-83
2021/11/23 11:50:09;;;;;;;7.97;3.40;;;14.50;93.50;;;;;;5012101;28;20022;-83
2021/11/23 11:52:54;;;;;;;7.32;3.60;;;14.30;92.90;;;;;;5010841;28;20407;-83
2021/11/23 11:55:25;;;;;;;8.68;3.70;;;14.10;92.50;;;;;;5011602;28;20559;-83
2021/11/23 11:57:55;;;;;;;8.32;3.38;;;14.00;92.30;;;;;;5010405;28;20029;-83
2021/11/23 12:00:24;;;;;;;7.47;2.97;;;13.90;91.90;;;;;;4996407;28;20030;-83
2021/11/23 12:02:51;;;;;;;11.32;3.15;;;13.70;91.60;;;;;;4992101;28;20380;-83
2021/11/23 12:05:17;;;;;;;9.48;3.75;;;13.50;91.40;;;;;;4992782;28;20471;-83
2021/11/23 12:07:48;;;;;;;6.78;3.40;;;13.30;91.20;;;;;;4991806;28;20398;-83
2021/11/23 12:10:18;;;;;;;9.85;4.07;;;13.20;91.20;;;;;;4992391;28;20034;-83
2021/11/23 12:12:55;;;;;;;10.75;4.57;;;13.00;91.40;;;;;;5002406;28;20036;-83
2021/11/23 12:15:45;;;;;;;11.48;4.65;;;12.80;91.20;;;;;;5001787;28;20777;-83
2021/11/23 12:18:38;;;;;;;10.02;4.50;;;12.60;91.30;;;;;;5004182;28;20018;-83
2021/11/23 12:21:18;;;;;;;12.23;5.10;;;12.40;91.30;;;;;;5004164;28;20018;-83
2021/11/23 12:23:58;;;;;;;14.05;5.90;;;12.30;91.40;;;;;;5001345;28;20081;-83
2021/11/23 12:26:29;;;;;;;11.30;5.03;;;12.10;91.50;;;;;;4975990;28;20123;-83
2021/11/23 12:29:03;;;;;;;14.20;5.80;;;12.00;91.70;;;;;;4992221;28;20113;-83
2021/11/23 12:31:35;;;;;;;11.30;6.28;;;11.80;91.80;;;;;;4992476;28;20497;-83
2021/11/23 12:34:05;;;;;;;13.45;6.82;;;11.70;92.00;;;;;;4996816;28;20113;-83
2021/11/23 12:36:44;;;;;;;13.32;6.47;;;11.60;92.20;;;;;;5002543;28;20084;-83
2021/11/23 12:39:37;;;;;;;10.90;6.53;;;11.60;92.30;;;;;;5015482;28;20037;-83
2021/11/23 12:42:05;;;;;;;12.48;5.32;;;11.50;92.40;;;;;;5015379;28;20050;-82
2021/11/23 12:44:34;;;;;;;10.95;4.97;;;11.50;92.50;;;;;;5010754;28;20048;-83
2021/11/23 12:47:11;;;;;;;8.50;4.95;;;11.50;92.60;;;;;;5011341;28;20054;-83
2021/11/23 12:49:39;;;;;;;13.18;6.30;;;11.50;92.80;;;;;;5013115;28;20036;-83